Time;durP1;ratioP1;P1;durP2;ratioP2;P2;SDS_P1;SDS_P2;PMS_P1;PMS_P2;Temp;Humidity;BMP_temperature;BMP_pressure;BME280_temperature;BME280_humidity;BME280_pressure;Samples;Min_cycle;Max_cycle;Signal;HPM_P1;HPM_P2
2022/09/24 00:01:10;;;;;;;6.07;3.80;;;;;;;10.30;100.00;95601.53;4952216;29;24453;-69
2022/09/24 00:03:36;;;;;;;6.05;3.80;;;;;;;10.38;100.00;95603.63;4948307;29;24434;-69
2022/09/24 00:06:04;;;;;;;6.40;4.07;;;;;;;10.32;100.00;95610.06;4954133;29;24997;-69
2022/09/24 00:08:31;;;;;;;5.75;3.95;;;;;;;10.23;100.00;95604.59;4954902;29;24438;-69
2022/09/24 00:11:01;;;;;;;7.00;4.47;;;;;;;10.20;100.00;95603.03;4953548;29;24711;-69
2022/09/24 00:13:27;;;;;;;5.70;3.72;;;;;;;10.23;100.00;95594.22;4948573;29;24430;-69
2022/09/24 00:15:55;;;;;;;5.38;3.35;;;;;;;10.26;100.00;95594.06;4954894;29;24433;-69
2022/09/24 00:18:22;;;;;;;5.45;3.67;;;;;;;10.32;100.00;95602.28;4949472;28;24461;-69
2022/09/24 00:20:48;;;;;;;3.85;3.25;;;;;;;10.33;100.00;95593.59;4954335;29;24477;-68
2022/09/24 00:23:15;;;;;;;4.55;3.25;;;;;;;10.34;100.00;95592.63;4948035;29;24438;-69
2022/09/24 00:28:23;;;;;;;5.35;3.22;;;;;;;10.21;100.00;95590.94;4913111;29;24521;-69
2022/09/24 00:30:51;;;;;;;3.83;3.13;;;;;;;10.25;100.00;95589.81;4953609;29;24430;-69
2022/09/24 00:33:20;;;;;;;4.95;3.50;;;;;;;10.24;100.00;95588.16;4953676;29;24494;-69
2022/09/24 00:35:46;;;;;;;6.25;3.60;;;;;;;10.19;100.00;95591.00;4952891;29;24445;-69
2022/09/24 00:38:13;;;;;;;6.38;4.03;;;;;;;10.11;100.00;95585.50;4947836;28;24445;-69
2022/09/24 00:40:40;;;;;;;4.18;3.35;;;;;;;10.06;100.00;95578.03;4952435;28;25148;-69
2022/09/24 00:43:22;;;;;;;3.85;3.38;;;;;;;9.94;100.00;95576.25;4941494;29;24793;-69
2022/09/24 00:45:49;;;;;;;4.22;3.45;;;;;;;9.98;100.00;95566.53;4950278;29;24796;-68
2022/09/24 00:48:16;;;;;;;4.82;3.40;;;;;;;10.08;100.00;95563.22;4947973;28;24446;-68
2022/09/24 00:50:44;;;;;;;4.18;3.28;;;;;;;9.80;100.00;95565.94;4953721;29;24430;-68
2022/09/24 00:53:13;;;;;;;7.67;3.70;;;;;;;9.73;100.00;95573.25;4948924;29;24434;-68
2022/09/24 00:55:43;;;;;;;5.38;3.50;;;;;;;9.76;100.00;95564.47;4954280;29;24441;-68
2022/09/24 00:58:10;;;;;;;5.63;3.47;;;;;;;9.72;100.00;95571.59;4949940;28;24438;-68
2022/09/24 01:00:38;;;;;;;4.38;3.35;;;;;;;9.70;100.00;95569.06;4951482;29;25006;-68
2022/09/24 01:03:09;;;;;;;5.72;3.55;;;;;;;9.71;100.00;95564.72;4948792;29;24963;-68
2022/09/24 01:05:37;;;;;;;4.30;3.35;;;;;;;9.65;100.00;95559.97;4951811;29;24441;-68
2022/09/24 01:08:06;;;;;;;5.82;3.45;;;;;;;9.61;100.00;95559.31;4950154;28;24441;-69
2022/09/24 01:10:47;;;;;;;4.75;3.80;;;;;;;9.52;100.00;95564.22;4953001;29;24975;-69
2022/09/24 01:13:28;;;;;;;3.97;3.47;;;;;;;9.43;100.00;95556.13;4950113;29;24438;-69
2022/09/24 01:16:02;;;;;;;4.75;3.50;;;;;;;9.50;100.00;95550.56;4947705;29;24860;-69
2022/09/24 01:18:37;;;;;;;4.57;3.60;;;;;;;9.56;100.00;95542.41;4950239;28;24796;-68
2022/09/24 01:21:27;;;;;;;6.07;3.85;;;;;;;9.53;100.00;95540.88;4952842;29;24450;-68
2022/09/24 01:24:18;;;;;;;5.93;3.75;;;;;;;9.51;100.00;95539.31;4948926;29;24793;-69
2022/09/24 01:27:08;;;;;;;3.83;3.38;;;;;;;9.49;100.00;95536.78;4945310;29;24442;-69
2022/09/24 01:30:00;;;;;;;4.55;3.30;;;;;;;9.46;100.00;95529.25;4945129;29;24434;-69
2022/09/24 01:32:33;;;;;;;4.90;3.60;;;;;;;9.36;100.00;95517.81;4950383;29;24469;-68
2022/09/24 01:35:04;;;;;;;4.30;3.53;;;;;;;9.39;100.00;95510.72;4948177;29;24510;-68
2022/09/24 01:37:34;;;;;;;3.97;3.50;;;;;;;9.44;100.00;95524.16;4950783;28;24544;-69
2022/09/24 01:40:03;;;;;;;5.20;3.22;;;;;;;9.40;100.00;95520.13;4947003;29;24457;-69
2022/09/24 01:42:31;;;;;;;7.43;3.58;;;;;;;9.35;100.00;95513.59;4950272;29;24435;-69
2022/09/24 01:45:00;;;;;;;3.90;3.22;;;;;;;9.31;100.00;95501.78;4948365;29;24454;-69
2022/09/24 01:47:31;;;;;;;3.70;3.10;;;;;;;9.42;100.00;95500.19;4946594;29;24442;-69
2022/09/24 01:49:58;;;;;;;4.90;3.17;;;;;;;9.20;100.00;95498.09;4945647;29;24439;-68
2022/09/24 01:52:29;;;;;;;4.07;3.20;;;;;;;9.24;100.00;95498.75;4950741;29;24441;-68
2022/09/24 01:54:59;;;;;;;3.75;3.25;;;;;;;9.33;100.00;95499.91;4948465;29;24936;-68
2022/09/24 01:57:29;;;;;;;4.75;3.10;;;;;;;9.23;100.00;95504.81;4951840;28;24525;-69
2022/09/24 02:00:01;;;;;;;4.05;3.63;;;;;;;9.21;100.00;95497.16;4948234;28;24541;-68
2022/09/24 02:02:34;;;;;;;5.03;3.25;;;;;;;9.27;100.00;95493.38;4946992;29;24434;-68
2022/09/24 02:05:05;;;;;;;4.63;3.43;;;;;;;9.26;100.00;95491.72;4947190;29;24520;-68
2022/09/24 02:07:35;;;;;;;3.33;2.97;;;;;;;9.29;100.00;95490.69;4946561;29;24586;-68
2022/09/24 02:10:02;;;;;;;6.03;3.50;;;;;;;9.33;100.00;95492.16;4947175;29;24554;-68
2022/09/24 02:12:33;;;;;;;4.85;3.40;;;;;;;9.40;100.00;95494.25;4951255;29;24436;-68
2022/09/24 02:15:07;;;;;;;3.28;2.90;;;;;;;9.50;100.00;95506.63;4948890;29;24966;-68
2022/09/24 02:17:37;;;;;;;3.83;3.10;;;;;;;9.58;100.00;95494.88;4951398;28;24445;-69
2022/09/24 02:20:10;;;;;;;5.17;3.50;;;;;;;9.58;100.00;95494.03;4946577;29;25035;-69
2022/09/24 02:22:38;;;;;;;4.75;3.45;;;;;;;9.57;100.00;95490.63;4946359;29;24442;-69
2022/09/24 02:25:09;;;;;;;4.55;3.60;;;;;;;9.48;100.00;95496.38;4948298;29;24441;-69
2022/09/24 02:27:35;;;;;;;4.65;3.17;;;;;;;9.48;100.00;95486.03;4951141;28;24821;-69
2022/09/24 02:30:06;;;;;;;6.87;3.80;;;;;;;9.53;100.00;95476.25;4946170;29;24471;-68
2022/09/24 02:32:36;;;;;;;6.70;3.00;;;;;;;9.59;100.00;95472.44;4950225;29;24442;-68
2022/09/24 02:35:05;;;;;;;3.40;3.10;;;;;;;9.61;100.00;95473.16;4947245;29;24828;-68
2022/09/24 02:37:35;;;;;;;4.35;2.50;;;;;;;9.82;100.00;95482.13;4950978;28;24438;-68
2022/09/24 02:40:03;;;;;;;5.60;3.08;;;;;;;9.80;100.00;95483.16;4947397;29;24824;-68
2022/09/24 02:42:30;;;;;;;6.07;3.28;;;;;;;9.50;100.00;95488.53;4950308;29;24441;-68
2022/09/24 02:44:58;;;;;;;6.05;3.58;;;;;;;9.38;100.00;95493.56;4947683;29;24441;-68
2022/09/24 02:47:26;;;;;;;4.63;3.53;;;;;;;9.43;100.00;95486.31;4950562;28;24449;-69
2022/09/24 02:49:52;;;;;;;5.80;3.88;;;;;;;9.44;100.00;95489.72;4947017;28;24438;-69
2022/09/24 02:52:19;;;;;;;6.57;3.92;;;;;;;9.47;100.00;95476.63;4951162;29;24430;-69
2022/09/24 02:54:46;;;;;;;4.30;3.65;;;;;;;9.41;100.00;95475.25;4948197;29;24529;-69
2022/09/24 02:57:12;;;;;;;4.95;3.25;;;;;;;9.43;100.00;95478.56;4952322;28;24437;-68
2022/09/24 02:59:39;;;;;;;6.25;3.60;;;;;;;9.48;100.00;95472.28;4947603;29;24441;-68
2022/09/24 03:02:05;;;;;;;6.93;3.33;;;;;;;9.53;100.00;95471.06;4950653;29;24466;-69
2022/09/24 03:04:33;;;;;;;4.53;3.85;;;;;;;9.59;100.00;95465.50;4947522;29;24549;-68
2022/09/24 03:07:00;;;;;;;3.63;3.23;;;;;;;9.60;100.00;95468.91;4943340;29;24503;-68
2022/09/24 03:09:26;;;;;;;5.38;3.17;;;;;;;9.66;100.00;95469.34;4947416;28;24505;-68
2022/09/24 03:11:53;;;;;;;3.55;3.20;;;;;;;9.69;100.00;95468.34;4950721;29;24991;-69
2022/09/24 03:14:19;;;;;;;3.78;3.15;;;;;;;9.72;100.00;95465.56;4947420;29;24972;-69
2022/09/24 03:16:46;;;;;;;5.22;3.65;;;;;;;9.78;100.00;95464.31;4950809;29;24868;-68
2022/09/24 03:19:12;;;;;;;4.53;3.63;;;;;;;9.76;100.00;95459.25;4942540;29;24445;-69
2022/09/24 03:21:40;;;;;;;6.38;3.38;;;;;;;9.95;100.00;95453.72;4950248;29;24483;-69
2022/09/24 03:24:06;;;;;;;5.82;3.58;;;;;;;9.87;100.00;95448.22;4949080;29;24445;-68
2022/09/24 03:26:33;;;;;;;8.20;3.92;;;;;;;9.94;100.00;95445.13;4949804;29;24434;-68
2022/09/24 03:28:59;;;;;;;4.00;3.55;;;;;;;9.76;100.00;95454.09;4949363;28;24449;-68
2022/09/24 03:31:25;;;;;;;6.65;3.80;;;;;;;9.57;100.00;95454.44;4949257;29;24441;-68
2022/09/24 03:33:51;;;;;;;5.13;3.45;;;;;;;9.56;100.00;95455.34;4945581;29;24437;-68
2022/09/24 03:36:21;;;;;;;4.18;3.47;;;;;;;9.52;100.00;95460.81;4948347;29;24469;-68
2022/09/24 03:38:52;;;;;;;4.22;3.20;;;;;;;9.44;100.00;95459.53;4945353;29;24537;-67
2022/09/24 03:41:19;;;;;;;6.05;3.58;;;;;;;9.44;100.00;95459.53;4948279;29;25019;-68
2022/09/24 03:43:45;;;;;;;4.25;3.30;;;;;;;9.49;100.00;95455.84;4939438;29;24426;-68
2022/09/24 03:46:12;;;;;;;3.88;3.47;;;;;;;9.51;100.00;95449.66;4943849;29;24849;-69
2022/09/24 03:48:40;;;;;;;5.97;3.93;;;;;;;9.55;100.00;95450.28;4945837;29;25014;-69
2022/09/24 03:51:09;;;;;;;8.48;4.10;;;;;;;9.55;100.00;95445.94;4948710;28;24434;-68
2022/09/24 03:53:35;;;;;;;5.80;3.88;;;;;;;9.50;100.00;95450.59;4945764;29;24438;-68
2022/09/24 03:56:04;;;;;;;4.28;3.88;;;;;;;9.56;100.00;95463.09;4941614;29;24461;-68
2022/09/24 03:58:34;;;;;;;5.32;3.95;;;;;;;9.58;100.00;95463.03;4941545;29;24447;-68
2022/09/24 04:01:01;;;;;;;6.63;4.80;;;;;;;9.53;100.00;95450.41;4948408;28;24540;-68
2022/09/24 04:03:28;;;;;;;9.98;5.40;;;;;;;9.47;100.00;95448.19;4945678;28;24435;-69
2022/09/24 04:05:55;;;;;;;7.13;5.05;;;;;;;9.54;100.00;95446.03;4944535;29;24457;-68
2022/09/24 04:08:22;;;;;;;7.28;4.65;;;;;;;9.56;100.00;95450.16;4950179;28;24450;-67
2022/09/24 04:10:50;;;;;;;5.87;4.60;;;;;;;9.58;100.00;95448.34;4952492;28;24582;-67
2022/09/24 04:13:19;;;;;;;8.90;5.90;;;;;;;9.52;100.00;95442.72;4949704;29;24449;-68
2022/09/24 04:15:46;;;;;;;8.25;5.80;;;;;;;9.47;100.00;95440.44;4952639;29;24441;-69
2022/09/24 04:18:13;;;;;;;6.30;4.80;;;;;;;9.38;100.00;95436.69;4949028;29;24536;-67
2022/09/24 04:20:40;;;;;;;6.70;4.90;;;;;;;9.30;100.00;95432.91;4952416;29;24434;-69
2022/09/24 04:23:06;;;;;;;4.47;4.05;;;;;;;9.35;100.00;95426.53;4948125;29;24444;-68
2022/09/24 04:25:34;;;;;;;5.75;4.75;;;;;;;9.52;100.00;95425.44;4953139;29;24442;-68
2022/09/24 04:28:02;;;;;;;4.83;3.73;;;;;;;9.62;100.00;95426.53;4950235;29;24477;-68
2022/09/24 04:30:31;;;;;;;4.97;3.63;;;;;;;9.58;100.00;95421.66;4952403;29;24434;-68
2022/09/24 04:32:59;;;;;;;6.32;3.63;;;;;;;9.60;100.00;95424.94;4949949;29;24438;-69
2022/09/24 04:35:28;;;;;;;5.43;3.97;;;;;;;9.50;100.00;95424.72;4952967;29;25266;-69
2022/09/24 04:37:55;;;;;;;5.45;3.92;;;;;;;9.49;100.00;95433.41;4948491;29;24438;-68
2022/09/24 04:40:22;;;;;;;5.70;4.00;;;;;;;9.50;100.00;95426.50;4949120;28;24882;-69
2022/09/24 04:42:48;;;;;;;7.10;4.10;;;;;;;9.50;100.00;95421.31;4948236;29;24816;-69
2022/09/24 04:45:18;;;;;;;5.78;3.88;;;;;;;9.50;100.00;95429.06;4953331;29;24438;-69
2022/09/24 04:47:54;;;;;;;6.10;4.18;;;;;;;9.59;100.00;95420.72;4967187;23;24438;-70
2022/09/24 04:50:21;;;;;;;7.80;4.18;;;;;;;9.62;100.00;95426.53;5003009;28;24448;-70
2022/09/24 04:52:48;;;;;;;4.38;3.55;;;;;;;9.48;100.00;95420.59;5011574;28;24560;-71
2022/09/24 04:55:14;;;;;;;3.88;3.53;;;;;;;9.47;100.00;95429.28;5010657;28;25007;-70
2022/09/24 04:57:41;;;;;;;6.68;3.90;;;;;;;9.48;100.00;95420.59;5011204;28;24435;-70
2022/09/24 05:00:13;;;;;;;4.68;4.05;;;;;;;9.50;100.00;95419.56;4992080;28;24441;-70
2022/09/24 05:02:40;;;;;;;5.05;3.72;;;;;;;9.52;100.00;95425.44;4991768;28;24457;-70
2022/09/24 05:05:08;;;;;;;5.50;3.80;;;;;;;9.48;100.00;95430.91;4995657;28;24442;-72
2022/09/24 05:07:35;;;;;;;4.72;3.67;;;;;;;9.50;100.00;95431.66;5002253;28;24436;-73
2022/09/24 05:10:02;;;;;;;5.93;3.88;;;;;;;9.53;100.00;95431.44;4996101;28;24453;-73
2022/09/24 05:12:28;;;;;;;5.40;3.58;;;;;;;9.33;100.00;95430.97;4991539;28;24437;-73
2022/09/24 05:14:55;;;;;;;5.78;3.53;;;;;;;9.28;100.00;95433.03;4991241;28;24513;-73
2022/09/24 05:17:21;;;;;;;4.95;4.00;;;;;;;9.23;100.00;95427.28;4999483;28;24436;-73
2022/09/24 05:19:48;;;;;;;4.90;3.27;;;;;;;9.12;100.00;95429.72;4993772;28;24437;-73
2022/09/24 05:22:15;;;;;;;8.40;4.40;;;;;;;8.94;100.00;95431.72;4992030;28;24455;-73
2022/09/24 05:24:42;;;;;;;3.92;3.53;;;;;;;9.12;100.00;95432.31;4991839;28;24432;-73
2022/09/24 05:27:08;;;;;;;5.13;3.80;;;;;;;9.21;100.00;95429.16;5005766;28;24433;-73
2022/09/24 05:29:35;;;;;;;4.75;3.53;;;;;;;9.31;100.00;95438.00;5007367;28;24556;-73
2022/09/24 05:32:04;;;;;;;5.47;3.67;;;;;;;9.38;100.00;95441.84;5003776;28;24460;-73
2022/09/24 05:34:31;;;;;;;4.70;3.92;;;;;;;9.40;100.00;95442.56;4996488;28;24532;-73
2022/09/24 05:36:57;;;;;;;9.18;4.45;;;;;;;9.30;100.00;95443.25;5002127;28;24437;-73
2022/09/24 05:39:25;;;;;;;8.63;4.57;;;;;;;9.28;100.00;95439.94;5004258;28;24449;-70
2022/09/24 05:41:51;;;;;;;9.57;4.53;;;;;;;9.36;100.00;95435.94;5004061;28;25015;-72
2022/09/24 05:44:20;;;;;;;7.10;3.72;;;;;;;9.58;100.00;95438.00;5006411;28;24982;-72
2022/09/24 05:46:47;;;;;;;8.85;3.70;;;;;;;9.76;100.00;95442.91;5008275;28;24805;-72
2022/09/24 05:49:13;;;;;;;6.43;3.53;;;;;;;9.77;100.00;95454.91;5007591;28;24439;-72
2022/09/24 05:51:40;;;;;;;4.75;4.03;;;;;;;9.73;100.00;95443.09;5005183;28;24805;-72
2022/09/24 05:54:06;;;;;;;8.48;3.95;;;;;;;9.62;100.00;95442.03;4998045;28;24432;-71
2022/09/24 05:56:35;;;;;;;5.10;3.60;;;;;;;9.62;100.00;95447.22;5000340;28;24429;-71
2022/09/24 05:59:01;;;;;;;4.63;3.70;;;;;;;9.63;100.00;95453.19;4993546;28;25012;-71
2022/09/24 06:01:29;;;;;;;4.70;3.17;;;;;;;9.58;100.00;95448.34;4997371;28;24455;-72
2022/09/24 06:03:56;;;;;;;7.88;3.58;;;;;;;9.51;100.00;95454.00;4995311;28;24843;-72
2022/09/24 06:06:22;;;;;;;3.90;3.30;;;;;;;9.51;100.00;95454.00;4996985;28;24970;-72
2022/09/24 06:08:49;;;;;;;7.30;3.60;;;;;;;9.53;100.00;95455.56;5002441;28;24435;-72
2022/09/24 06:11:15;;;;;;;4.82;3.35;;;;;;;9.59;100.00;95462.91;4996593;28;24456;-72
2022/09/24 06:13:43;;;;;;;6.90;4.63;;;;;;;9.59;100.00;95467.25;4998716;28;24455;-71
2022/09/24 06:16:11;;;;;;;6.78;4.05;;;;;;;9.62;100.00;95473.06;4996906;28;24444;-71
2022/09/24 06:18:40;;;;;;;12.15;4.65;;;;;;;9.67;100.00;95476.16;4998039;28;24543;-71
2022/09/24 06:21:08;;;;;;;9.07;4.80;;;;;;;9.75;100.00;95469.69;5005292;28;24463;-71
2022/09/24 06:23:36;;;;;;;6.47;4.80;;;;;;;9.64;100.00;95473.81;4990132;28;24806;-71
2022/09/24 06:26:03;;;;;;;5.90;4.28;;;;;;;9.64;100.00;95466.06;4987779;28;24966;-71
2022/09/24 06:28:30;;;;;;;5.75;4.00;;;;;;;9.58;100.00;95460.44;4990007;28;24973;-71
2022/09/24 06:30:59;;;;;;;7.72;4.10;;;;;;;9.52;100.00;95463.41;4998842;28;24443;-71
2022/09/24 06:33:26;;;;;;;10.18;4.80;;;;;;;9.51;100.00;95462.56;4990139;28;24795;-71
2022/09/24 06:35:52;;;;;;;5.85;3.97;;;;;;;9.62;100.00;95469.66;4999370;28;24523;-71
2022/09/24 06:38:19;;;;;;;6.63;4.07;;;;;;;9.74;100.00;95480.97;4989749;28;24444;-71
2022/09/24 06:40:47;;;;;;;4.90;3.83;;;;;;;9.83;100.00;95472.63;4998643;28;24443;-71
2022/09/24 06:43:15;;;;;;;7.43;4.07;;;;;;;9.93;100.00;95476.25;4991828;28;24504;-71
2022/09/24 06:45:42;;;;;;;6.68;4.00;;;;;;;10.03;100.00;95476.50;4999602;28;24425;-71
2022/09/24 06:48:12;;;;;;;9.10;4.70;;;;;;;10.06;100.00;95471.13;4992846;28;24534;-71
2022/09/24 06:50:40;;;;;;;6.25;4.50;;;;;;;10.04;100.00;95471.22;4990138;28;24444;-71
2022/09/24 06:53:07;;;;;;;6.88;4.50;;;;;;;10.10;100.00;95468.22;4991041;28;24440;-71
2022/09/24 06:55:34;;;;;;;5.30;4.10;;;;;;;10.08;100.00;95479.59;4998100;28;24456;-71
2022/09/24 06:58:03;;;;;;;5.57;4.22;;;;;;;10.14;100.00;95484.38;4992313;28;24516;-71
2022/09/24 07:00:29;;;;;;;6.43;4.35;;;;;;;10.17;100.00;95481.59;4989895;28;24429;-71
2022/09/24 07:02:56;;;;;;;13.33;5.10;;;;;;;10.13;100.00;95475.81;4991040;28;24457;-71
2022/09/24 07:05:24;;;;;;;6.03;3.97;;;;;;;10.23;100.00;95482.94;4997422;28;24432;-71
2022/09/24 07:07:50;;;;;;;6.40;3.90;;;;;;;10.25;100.00;95481.94;4996030;28;24437;-71
2022/09/24 07:10:17;;;;;;;6.03;4.07;;;;;;;10.22;100.00;95482.13;4991735;28;24525;-70
2022/09/24 07:12:44;;;;;;;8.60;4.85;;;;;;;10.20;100.00;95478.81;4996807;28;24440;-71
2022/09/24 07:15:11;;;;;;;6.07;4.30;;;;;;;10.10;100.00;95482.94;4991304;28;24841;-71
2022/09/24 07:17:37;;;;;;;8.90;4.68;;;;;;;10.14;100.00;95476.63;4997313;28;25005;-71
2022/09/24 07:20:04;;;;;;;6.63;4.00;;;;;;;10.18;100.00;95478.91;4994248;28;24418;-71
2022/09/24 07:22:32;;;;;;;5.73;4.10;;;;;;;10.31;100.00;95481.56;4998272;28;24464;-70
2022/09/24 07:24:59;;;;;;;5.20;3.78;;;;;;;10.41;100.00;95482.59;4994893;28;24431;-70
2022/09/24 07:27:25;;;;;;;6.73;4.33;;;;;;;10.40;100.00;95480.09;4992449;28;24989;-71
2022/09/24 07:29:51;;;;;;;5.57;4.28;;;;;;;10.38;100.00;95480.22;4994449;28;24452;-71
2022/09/24 07:32:18;;;;;;;5.45;4.00;;;;;;;10.47;100.00;95493.47;4992486;28;24437;-71
2022/09/24 07:34:45;;;;;;;7.43;4.53;;;;;;;10.48;100.00;95498.53;4994658;28;24439;-71
2022/09/24 07:37:11;;;;;;;8.23;4.25;;;;;;;10.54;100.00;95492.16;4994722;28;25055;-71
2022/09/24 07:39:39;;;;;;;5.82;4.38;;;;;;;10.64;100.00;95495.75;4999104;28;24544;-71
2022/09/24 07:42:06;;;;;;;8.65;4.30;;;;;;;10.68;100.00;95505.00;4996575;28;24496;-71
2022/09/24 07:44:33;;;;;;;4.85;4.32;;;;;;;10.70;100.00;95495.34;4999075;28;24443;-71
2022/09/24 07:46:59;;;;;;;6.83;5.23;;;;;;;10.69;100.00;95501.47;4993255;28;24440;-71
2022/09/24 07:49:27;;;;;;;9.05;5.82;;;;;;;10.78;100.00;95506.00;4992476;28;24448;-71
2022/09/24 07:51:54;;;;;;;6.93;5.05;;;;;;;10.83;100.00;95506.53;4997355;28;24494;-71
2022/09/24 07:54:20;;;;;;;9.73;4.88;;;;;;;10.88;100.00;95503.63;4994648;28;24977;-71
2022/09/24 07:56:48;;;;;;;6.45;4.85;;;;;;;10.87;100.00;95505.41;4995552;28;24978;-71
2022/09/24 07:59:15;;;;;;;5.20;4.25;;;;;;;10.92;100.00;95509.44;5001418;28;24436;-71
2022/09/24 08:01:41;;;;;;;6.15;4.30;;;;;;;10.98;100.00;95503.84;4996813;28;24444;-71
2022/09/24 08:04:08;;;;;;;10.05;4.68;;;;;;;11.01;100.00;95504.47;4992433;28;24433;-71
2022/09/24 08:06:35;;;;;;;6.27;4.50;;;;;;;11.01;100.00;95506.19;4998125;28;24985;-71
2022/09/24 08:09:02;;;;;;;11.32;5.00;;;;;;;11.05;100.00;95505.06;4987745;28;24449;-71
2022/09/24 08:11:28;;;;;;;7.13;5.03;;;;;;;11.09;100.00;95506.53;4993017;28;24437;-71
2022/09/24 08:13:57;;;;;;;9.97;4.90;;;;;;;11.19;100.00;95506.69;4997173;28;24463;-71
2022/09/24 08:16:24;;;;;;;7.60;5.33;;;;;;;11.27;100.00;95510.44;5000281;28;24599;-71
2022/09/24 08:18:51;;;;;;;7.13;5.25;;;;;;;11.37;100.00;95506.25;5006822;28;24539;-71
2022/09/24 08:21:17;;;;;;;6.18;5.18;;;;;;;11.49;100.00;95506.31;5000898;28;24476;-71
2022/09/24 08:23:44;;;;;;;6.82;5.40;;;;;;;11.60;100.00;95493.41;4992156;28;24456;-71
2022/09/24 08:26:12;;;;;;;10.68;5.47;;;;;;;11.74;100.00;95501.03;4992281;28;24441;-71
2022/09/24 08:28:40;;;;;;;7.60;5.35;;;;;;;11.93;100.00;95510.13;4991356;28;24441;-72
2022/09/24 08:31:12;;;;;;;7.93;4.97;;;;;;;12.10;100.00;95515.75;4993719;28;24452;-70
2022/09/24 08:33:39;;;;;;;6.43;4.60;;;;;;;12.26;100.00;95510.28;5000590;28;24433;-71
2022/09/24 08:36:08;;;;;;;6.47;4.13;;;;;;;12.35;100.00;95512.22;4998531;28;24997;-72
2022/09/24 08:38:35;;;;;;;6.40;4.47;;;;;;;12.36;100.00;95515.63;5000501;28;25068;-71
2022/09/24 08:41:15;;;;;;;12.18;4.05;;;;;;;12.38;100.00;95510.31;5006046;28;24447;-71
2022/09/24 08:43:50;;;;;;;4.60;4.07;;;;;;;12.52;100.00;95504.91;4994665;28;24540;-71
2022/09/24 08:49:10;;;;;;;7.32;3.50;;;;;;;12.84;100.00;95516.31;4993290;28;24794;-71
2022/09/24 08:51:45;;;;;;;6.95;3.85;;;;;;;12.92;100.00;95513.13;4987812;28;24437;-71
2022/09/24 08:54:14;;;;;;;3.80;3.10;;;;;;;13.01;100.00;95503.81;4996924;28;24541;-71
2022/09/24 08:56:45;;;;;;;4.97;3.28;;;;;;;13.09;100.00;95509.25;4991947;28;24436;-71
2022/09/24 08:59:26;;;;;;;4.63;3.13;;;;;;;13.00;100.00;95508.19;5009633;28;24440;-71
2022/09/24 09:02:12;;;;;;;6.75;3.42;;;;;;;12.86;100.00;95510.16;5015410;28;24440;-71
2022/09/24 09:04:48;;;;;;;4.45;3.25;;;;;;;12.83;100.00;95508.66;5010372;28;24442;-71
2022/09/24 09:07:20;;;;;;;5.20;3.20;;;;;;;12.92;100.00;95513.13;5023408;28;24491;-71
2022/09/24 09:09:54;;;;;;;3.33;2.80;;;;;;;12.95;100.00;95512.09;5016299;28;24443;-71
2022/09/24 09:12:25;;;;;;;3.72;2.88;;;;;;;12.86;100.00;95510.16;5024430;28;24428;-71
2022/09/24 09:14:58;;;;;;;6.47;3.35;;;;;;;12.87;100.00;95507.47;5017697;28;24799;-71
2022/09/24 09:17:36;;;;;;;4.10;2.70;;;;;;;12.87;100.00;95506.63;5023950;28;24440;-71
2022/09/24 09:20:07;;;;;;;13.35;3.10;;;;;;;12.85;100.00;95504.16;5022403;28;24996;-71
2022/09/24 09:22:41;;;;;;;4.22;2.47;;;;;;;12.86;100.00;95513.59;5022144;28;25002;-71
2022/09/24 09:25:18;;;;;;;3.53;2.58;;;;;;;12.82;100.00;95509.56;5015939;28;24508;-71
2022/09/24 09:27:46;;;;;;;6.95;2.88;;;;;;;12.87;100.00;95512.66;5017335;28;24439;-71
2022/09/24 09:30:16;;;;;;;2.93;2.43;;;;;;;12.87;100.00;95507.47;5016840;28;24830;-71
2022/09/24 09:32:59;;;;;;;6.80;3.00;;;;;;;12.96;100.00;95504.16;5017748;28;24424;-71
2022/09/24 09:35:33;;;;;;;5.60;3.00;;;;;;;13.03;100.00;95504.53;5015428;28;25000;-71
2022/09/24 09:38:07;;;;;;;3.30;2.50;;;;;;;13.12;100.00;95493.41;5019519;28;24468;-71
2022/09/24 09:40:37;;;;;;;3.70;2.63;;;;;;;13.18;100.00;95499.91;5022448;28;24440;-71
2022/09/24 09:43:10;;;;;;;3.35;2.30;;;;;;;13.34;100.00;95503.00;5019366;28;24455;-71
2022/09/24 09:45:44;;;;;;;2.88;2.25;;;;;;;13.42;100.00;95513.66;5022440;28;24447;-71
2022/09/24 09:48:15;;;;;;;2.92;2.30;;;;;;;13.48;100.00;95509.72;5023945;28;24988;-71
2022/09/24 09:50:46;;;;;;;3.25;2.30;;;;;;;13.52;100.00;95505.94;5023385;28;24439;-71
2022/09/24 09:53:20;;;;;;;3.28;2.08;;;;;;;13.34;100.00;95504.78;5024259;28;24432;-71
2022/09/24 09:55:53;;;;;;;2.95;2.03;;;;;;;13.46;100.00;95509.88;5021569;28;24479;-72
2022/09/24 09:58:23;;;;;;;2.60;2.00;;;;;;;13.50;100.00;95507.84;5027672;28;24440;-71
2022/09/24 10:00:50;;;;;;;2.00;1.70;;;;;;;13.53;100.00;95510.19;5025982;28;24427;-71
2022/09/24 10:03:28;;;;;;;3.55;2.30;;;;;;;13.50;100.00;95500.88;5025446;28;24460;-71
2022/09/24 10:05:57;;;;;;;2.27;1.83;;;;;;;13.50;100.00;95510.44;5022718;28;24424;-71
2022/09/24 10:08:24;;;;;;;2.10;1.48;;;;;;;13.50;100.00;95502.66;5016611;28;24992;-71
2022/09/24 10:10:55;;;;;;;1.75;1.50;;;;;;;13.59;100.00;95504.50;5013279;28;24805;-71
2022/09/24 10:13:22;;;;;;;1.85;1.60;;;;;;;13.56;100.00;95508.16;5002715;28;24439;-71
2022/09/24 10:15:51;;;;;;;2.20;1.57;;;;;;;13.55;100.00;95501.31;5012970;28;24435;-72
2022/09/24 10:18:29;;;;;;;2.08;1.70;;;;;;;13.50;100.00;95508.69;5009392;28;24441;-71
2022/09/24 10:20:58;;;;;;;2.40;1.75;;;;;;;13.48;100.00;95510.56;5010010;28;24443;-71
2022/09/24 10:23:30;;;;;;;3.45;1.80;;;;;;;13.41;100.00;95509.38;5015880;28;24985;-71
2022/09/24 10:26:00;;;;;;;4.28;1.80;;;;;;;13.38;100.00;95503.59;5013907;28;24440;-71
2022/09/24 10:31:16;;;;;;;1.67;1.52;;;;;;;13.35;100.00;95509.03;5014438;28;24431;-71
2022/09/24 10:33:46;;;;;;;3.20;2.00;;;;;;;13.34;100.00;95504.78;5010027;28;24436;-71
2022/09/24 10:36:16;;;;;;;3.10;1.83;;;;;;;13.40;100.00;95507.72;5013193;28;24482;-71
2022/09/24 10:38:42;;;;;;;2.70;1.80;;;;;;;13.54;100.00;95507.47;5016415;28;24432;-71
2022/09/24 10:41:16;;;;;;;2.80;1.53;;;;;;;13.53;100.00;95504.97;5007924;28;24519;-74
2022/09/24 10:43:50;;;;;;;4.40;1.98;;;;;;;13.58;100.00;95502.03;5016562;28;24479;-71
2022/09/24 10:46:37;;;;;;;2.60;1.60;;;;;;;13.66;100.00;95503.09;5015719;28;24519;-71
2022/09/24 10:49:15;;;;;;;5.90;1.73;;;;;;;13.61;100.00;95509.59;5010254;28;24494;-71
2022/09/24 10:51:48;;;;;;;3.45;1.60;;;;;;;13.66;100.00;95504.88;5011650;28;25019;-71
2022/09/24 10:54:35;;;;;;;2.10;1.52;;;;;;;13.69;100.00;95505.44;5009574;28;24435;-71
2022/09/24 10:57:09;;;;;;;1.80;1.52;;;;;;;13.77;100.00;95503.06;5007006;28;24443;-71
2022/09/24 10:59:50;;;;;;;2.13;1.63;;;;;;;13.79;100.00;95500.31;5012661;28;24443;-71
2022/09/24 11:02:58;;;;;;;3.15;2.05;;;;;;;13.79;100.00;95501.16;5018205;28;24850;-71
2022/09/24 11:05:33;;;;;;;3.33;2.15;;;;;;;13.77;100.00;95503.06;5010851;28;25034;-71
2022/09/24 11:08:07;;;;;;;4.10;1.95;;;;;;;13.83;100.00;95512.16;5012106;28;24448;-71
2022/09/24 11:10:53;;;;;;;5.28;2.03;;;;;;;13.80;100.00;95507.19;5009461;28;24433;-71
2022/09/24 11:13:30;;;;;;;4.10;1.88;;;;;;;13.89;100.00;95508.22;5018852;28;24448;-71
2022/09/24 11:16:14;;;;;;;4.93;1.80;;;;;;;13.88;100.00;95510.00;5021554;28;24478;-72
2022/09/24 11:18:50;;;;;;;3.15;2.03;;;;;;;13.76;100.00;95511.00;5019133;28;24496;-72
2022/09/24 11:21:29;;;;;;;3.15;2.15;;;;;;;13.80;100.00;95499.38;5019149;28;24432;-71
2022/09/24 11:24:10;;;;;;;2.53;1.80;;;;;;;13.85;100.00;95505.03;5020049;28;24448;-71
2022/09/24 11:26:54;;;;;;;2.53;1.92;;;;;;;13.86;100.00;95504.09;5013200;28;24442;-71
2022/09/24 11:29:35;;;;;;;2.97;2.13;;;;;;;13.92;100.00;95508.00;5013565;28;24444;-71
2022/09/24 11:32:09;;;;;;;2.47;2.00;;;;;;;13.91;100.00;95504.56;5010054;28;24431;-71
2022/09/24 11:34:59;;;;;;;3.38;2.10;;;;;;;13.91;100.00;95501.97;5017480;28;25005;-72
2022/09/24 11:37:38;;;;;;;3.15;2.03;;;;;;;13.88;100.00;95502.19;5019267;28;24448;-72
2022/09/24 11:40:28;;;;;;;2.37;1.83;;;;;;;13.90;100.00;95504.66;5019260;28;25046;-73
2022/09/24 11:43:08;;;;;;;2.38;1.90;;;;;;;13.93;100.00;95501.81;5013580;28;24427;-71
2022/09/24 11:45:49;;;;;;;2.10;1.73;;;;;;;13.97;100.00;95503.22;5019391;28;24435;-71
2022/09/24 11:48:31;;;;;;;4.10;1.63;;;;;;;13.96;100.00;95498.97;5017524;28;24451;-71
2022/09/24 11:51:10;;;;;;;3.13;1.80;;;;;;;13.95;100.00;95492.94;5017049;28;24455;-71